createdAt,value
2018-12-14T00:00:43.443Z,0
2018-12-14T00:01:43.419Z,0
2018-12-14T00:02:43.404Z,0
2018-12-14T00:03:43.387Z,0
2018-12-14T00:04:43.375Z,0
2018-12-14T00:05:43.359Z,0
2018-12-14T00:06:43.100Z,0
2018-12-14T00:07:43.329Z,0
2018-12-14T00:08:43.321Z,0
2018-12-14T00:09:43.296Z,0
2018-12-14T00:10:43.276Z,0
2018-12-14T00:11:48.027Z,0
2018-12-14T00:12:43.244Z,0
2018-12-14T00:13:43.239Z,0
2018-12-14T00:14:43.301Z,0
2018-12-14T00:15:43.204Z,0
2018-12-14T00:16:43.194Z,0
2018-12-14T00:17:43.179Z,0
2018-12-14T00:18:43.163Z,0
2018-12-14T00:19:43.136Z,0
2018-12-14T00:20:42.881Z,0
2018-12-14T00:21:43.113Z,0
2018-12-14T00:22:43.096Z,0
2018-12-14T00:23:43.080Z,0
2018-12-14T00:24:43.067Z,0
2018-12-14T00:25:43.047Z,0
2018-12-14T00:26:43.286Z,0
2018-12-14T00:27:43.017Z,0
2018-12-14T00:28:42.759Z,0
2018-12-14T00:29:43.044Z,0
2018-12-14T00:30:42.979Z,0
2018-12-14T00:31:42.964Z,0
2018-12-14T00:32:42.939Z,0
2018-12-14T00:33:42.991Z,0
2018-12-14T00:34:42.904Z,0
2018-12-14T00:35:42.893Z,0
2018-12-14T00:36:42.881Z,0
2018-12-14T00:37:42.919Z,0
2018-12-14T00:38:42.884Z,0
2018-12-14T00:39:42.828Z,0
2018-12-14T00:40:42.813Z,0
2018-12-14T00:41:42.798Z,0
2018-12-14T00:42:42.817Z,0
2018-12-14T00:43:42.768Z,0
2018-12-14T00:44:42.755Z,0
2018-12-14T00:45:42.733Z,0
2018-12-14T00:46:42.720Z,0
2018-12-14T00:47:42.720Z,0
2018-12-14T00:48:42.691Z,0
2018-12-14T00:49:42.676Z,0
2018-12-14T00:50:42.656Z,0
2018-12-14T00:51:42.642Z,0
2018-12-14T00:52:42.623Z,0
2018-12-14T00:53:42.607Z,0
2018-12-14T00:54:42.604Z,0
2018-12-14T00:55:42.577Z,0
2018-12-14T00:56:42.566Z,0
2018-12-14T00:57:42.798Z,0
2018-12-14T00:58:42.531Z,0
2018-12-14T00:59:42.512Z,0
2018-12-14T01:00:42.503Z,0
2018-12-14T01:01:42.498Z,0
2018-12-14T01:02:42.468Z,0
2018-12-14T01:03:42.462Z,0
2018-12-14T01:04:42.442Z,0
2018-12-14T01:05:42.426Z,0
2018-12-14T01:06:42.404Z,0
2018-12-14T01:07:42.398Z,0
2018-12-14T01:08:42.374Z,0
2018-12-14T01:09:42.365Z,0
2018-12-14T01:10:42.342Z,0
2018-12-14T01:11:42.375Z,0
2018-12-14T01:12:42.318Z,0
2018-12-14T01:13:42.321Z,0
2018-12-14T01:14:42.291Z,0
2018-12-14T01:15:42.262Z,0
2018-12-14T01:16:42.252Z,0
2018-12-14T01:17:42.233Z,0
2018-12-14T01:18:42.219Z,0
2018-12-14T01:19:42.201Z,0
2018-12-14T01:20:42.188Z,0
2018-12-14T01:21:42.222Z,0
2018-12-14T01:22:41.913Z,0
2018-12-14T01:23:42.146Z,0
2018-12-14T01:24:42.187Z,0
2018-12-14T01:25:42.107Z,0
2018-12-14T01:26:42.092Z,0
2018-12-14T01:27:42.083Z,0
2018-12-14T01:28:42.307Z,0
2018-12-14T01:29:42.046Z,0
2018-12-14T01:30:42.035Z,0
2018-12-14T01:31:42.015Z,0
2018-12-14T01:32:41.996Z,0
2018-12-14T01:33:41.982Z,0
2018-12-14T01:34:41.963Z,0
2018-12-14T01:35:41.951Z,0
2018-12-14T01:36:41.934Z,0
2018-12-14T01:37:41.921Z,0
2018-12-14T01:38:41.900Z,0
2018-12-14T01:39:41.889Z,0
2018-12-14T01:40:41.877Z,0
2018-12-14T01:41:41.872Z,0
2018-12-14T01:42:41.837Z,0
2018-12-14T01:43:41.826Z,0
2018-12-14T01:44:41.871Z,0
2018-12-14T01:45:41.821Z,0
2018-12-14T01:46:41.779Z,0
2018-12-14T01:47:41.822Z,0
2018-12-14T01:48:41.745Z,0
2018-12-14T01:49:41.734Z,0
2018-12-14T01:50:41.712Z,0
2018-12-14T01:51:41.695Z,0
2018-12-14T01:52:41.676Z,0
2018-12-14T01:53:41.658Z,0
2018-12-14T01:54:41.646Z,0
2018-12-14T01:55:41.633Z,0
2018-12-14T01:56:41.615Z,0
2018-12-14T01:57:41.594Z,0
2018-12-14T01:58:41.584Z,0
2018-12-14T01:59:41.823Z,0
2018-12-14T02:00:41.549Z,0
2018-12-14T02:01:41.534Z,0
2018-12-14T02:02:41.520Z,0
2018-12-14T02:03:41.501Z,0
2018-12-14T02:04:41.992Z,0
2018-12-14T02:05:41.480Z,0
2018-12-14T02:06:41.455Z,0
2018-12-14T02:07:41.434Z,0
2018-12-14T02:08:41.426Z,0
2018-12-14T02:09:41.408Z,0
2018-12-14T02:10:41.392Z,0
2018-12-14T02:11:41.371Z,0
2018-12-14T02:12:41.365Z,0
2018-12-14T02:13:41.338Z,0
2018-12-14T02:14:41.325Z,0
2018-12-14T02:15:41.308Z,0
2018-12-14T02:16:41.290Z,0
2018-12-14T02:17:41.037Z,0
2018-12-14T02:18:41.263Z,0
2018-12-14T02:19:41.255Z,0
2018-12-14T02:20:41.224Z,0
2018-12-14T02:21:41.212Z,0
2018-12-14T02:22:41.195Z,0
2018-12-14T02:23:41.181Z,0
2018-12-14T02:24:41.168Z,0
2018-12-14T02:25:41.152Z,0
2018-12-14T02:26:41.131Z,0
2018-12-14T02:27:41.117Z,0
2018-12-14T02:28:41.099Z,0
2018-12-14T02:29:41.086Z,0
2018-12-14T02:30:41.324Z,0
2018-12-14T02:31:41.054Z,0
2018-12-14T02:32:41.036Z,0
2018-12-14T02:33:41.043Z,0
2018-12-14T02:34:41.018Z,0
2018-12-14T02:35:40.986Z,0
2018-12-14T02:36:40.983Z,0
2018-12-14T02:37:40.948Z,0
2018-12-14T02:38:40.945Z,0
2018-12-14T02:39:41.033Z,0
2018-12-14T02:40:40.675Z,0
2018-12-14T02:41:40.908Z,0
2018-12-14T02:42:40.875Z,0
2018-12-14T02:43:40.861Z,0
2018-12-14T02:44:40.608Z,0
2018-12-14T02:45:40.835Z,0
2018-12-14T02:46:40.804Z,0
2018-12-14T02:47:40.803Z,0
2018-12-14T02:48:40.772Z,0
2018-12-14T02:49:42.337Z,0
2018-12-14T02:50:40.749Z,0
2018-12-14T02:51:40.724Z,0
2018-12-14T02:52:40.709Z,0
2018-12-14T02:53:40.703Z,0
2018-12-14T02:54:40.708Z,0
2018-12-14T02:55:40.672Z,0
2018-12-14T02:56:40.653Z,0
2018-12-14T02:57:40.651Z,0
2018-12-14T02:58:40.641Z,0
2018-12-14T02:59:40.594Z,0
2018-12-14T03:00:40.575Z,0
2018-12-14T03:01:40.562Z,0
2018-12-14T03:02:40.812Z,0
2018-12-14T03:03:40.526Z,0
2018-12-14T03:04:40.519Z,0
2018-12-14T03:05:40.540Z,0
2018-12-14T03:06:40.474Z,0
2018-12-14T03:07:40.462Z,0
2018-12-14T03:08:40.465Z,0
2018-12-14T03:09:40.428Z,0
2018-12-14T03:10:40.416Z,0
2018-12-14T03:11:40.164Z,0
2018-12-14T03:12:40.681Z,0
2018-12-14T03:13:40.390Z,0
2018-12-14T03:14:40.405Z,0
2018-12-14T03:15:40.331Z,0
2018-12-14T03:16:40.320Z,0
2018-12-14T03:17:40.294Z,0
2018-12-14T03:18:40.280Z,0
2018-12-14T03:19:40.282Z,0
2018-12-14T03:20:40.242Z,0
2018-12-14T03:21:40.234Z,0
2018-12-14T03:22:40.213Z,0
2018-12-14T03:23:40.196Z,0
2018-12-14T03:24:40.179Z,0
2018-12-14T03:25:40.156Z,0
2018-12-14T03:26:40.146Z,0
2018-12-14T03:27:40.123Z,0
2018-12-14T03:28:40.122Z,0
2018-12-14T03:29:40.093Z,0
2018-12-14T03:30:40.099Z,0
2018-12-14T03:31:40.096Z,0
2018-12-14T03:32:40.107Z,0
2018-12-14T03:33:40.035Z,0
2018-12-14T03:34:40.025Z,0
2018-12-14T03:35:39.987Z,0
2018-12-14T03:36:39.966Z,0
2018-12-14T03:37:39.952Z,0
2018-12-14T03:38:39.936Z,0
2018-12-14T03:39:39.919Z,0
2018-12-14T03:40:39.911Z,0
2018-12-14T03:41:39.888Z,0
2018-12-14T03:42:43.848Z,0
2018-12-14T03:43:39.865Z,0
2018-12-14T03:44:39.844Z,0
2018-12-14T03:45:39.823Z,0
2018-12-14T03:46:39.578Z,0
2018-12-14T03:47:39.791Z,0
2018-12-14T03:48:39.774Z,0
2018-12-14T03:49:39.749Z,0
2018-12-14T03:50:39.742Z,0
2018-12-14T03:51:39.710Z,0
2018-12-14T03:52:39.694Z,0
2018-12-14T03:53:39.685Z,0
2018-12-14T03:54:39.663Z,0
2018-12-14T03:55:39.653Z,0
2018-12-14T03:56:39.626Z,0
2018-12-14T03:57:39.615Z,0
2018-12-14T03:58:39.601Z,0
2018-12-14T03:59:39.627Z,0
2018-12-14T04:00:39.559Z,0
2018-12-14T04:01:39.548Z,0
2018-12-14T04:02:39.525Z,0
2018-12-14T04:03:39.505Z,0
2018-12-14T04:04:39.739Z,0
2018-12-14T04:05:39.476Z,0
2018-12-14T04:06:39.452Z,0
2018-12-14T04:07:39.455Z,0
2018-12-14T04:08:39.423Z,0
2018-12-14T04:09:39.446Z,0
2018-12-14T04:10:39.397Z,0
2018-12-14T04:11:39.374Z,0
2018-12-14T04:12:46.295Z,0
2018-12-14T04:13:39.338Z,0
2018-12-14T04:14:39.330Z,0
2018-12-14T04:15:39.311Z,0
2018-12-14T04:16:39.303Z,0
2018-12-14T04:17:39.263Z,0
2018-12-14T04:18:39.245Z,0
2018-12-14T04:19:39.230Z,0
2018-12-14T04:20:39.233Z,0
2018-12-14T04:21:39.191Z,0
2018-12-14T04:22:39.179Z,0
2018-12-14T04:23:39.163Z,0
2018-12-14T04:24:39.145Z,0
2018-12-14T04:25:39.135Z,0
2018-12-14T04:26:38.903Z,0
2018-12-14T04:27:39.098Z,0
2018-12-14T04:28:39.075Z,0
2018-12-14T04:29:39.063Z,0
2018-12-14T04:30:39.052Z,0
2018-12-14T04:31:39.037Z,0
2018-12-14T04:32:39.014Z,0
2018-12-14T04:33:38.993Z,0
2018-12-14T04:34:39.070Z,0
2018-12-14T04:35:39.243Z,0
2018-12-14T04:36:38.951Z,0
2018-12-14T04:37:38.924Z,0
2018-12-14T04:38:38.910Z,0
2018-12-14T04:39:40.728Z,0
2018-12-14T04:40:38.867Z,0
2018-12-14T04:41:38.875Z,0
2018-12-14T04:42:38.849Z,0
2018-12-14T04:43:38.817Z,0
2018-12-14T04:44:38.803Z,0
2018-12-14T04:45:38.793Z,0
2018-12-14T04:46:38.766Z,0
2018-12-14T04:47:38.759Z,0
2018-12-14T04:48:38.736Z,0
2018-12-14T04:49:38.728Z,0
2018-12-14T04:50:38.700Z,0
2018-12-14T04:51:38.683Z,0
2018-12-14T04:52:38.684Z,0
2018-12-14T04:53:38.643Z,0
2018-12-14T04:54:38.633Z,0
2018-12-14T04:55:38.612Z,0
2018-12-14T04:56:38.627Z,0
2018-12-14T04:57:38.615Z,0
2018-12-14T04:58:38.582Z,0
2018-12-14T04:59:38.557Z,0
2018-12-14T05:00:38.539Z,0
2018-12-14T05:01:38.510Z,0
2018-12-14T05:02:38.500Z,0
2018-12-14T05:03:38.493Z,0
2018-12-14T05:04:38.475Z,0
2018-12-14T05:05:38.214Z,0
2018-12-14T05:06:38.995Z,0
2018-12-14T05:07:38.410Z,0
2018-12-14T05:08:38.399Z,0
2018-12-14T05:09:38.381Z,0
2018-12-14T05:10:38.368Z,0
2018-12-14T05:11:39.316Z,0
2018-12-14T05:12:38.334Z,0
2018-12-14T05:13:38.325Z,0
2018-12-14T05:14:38.310Z,0
2018-12-14T05:15:38.057Z,0
2018-12-14T05:16:38.265Z,0
2018-12-14T05:17:38.248Z,0
2018-12-14T05:18:38.226Z,0
2018-12-14T05:19:37.969Z,0
2018-12-14T05:20:38.202Z,0
2018-12-14T05:21:38.190Z,0
2018-12-14T05:22:38.193Z,0
2018-12-14T05:23:38.152Z,0
2018-12-14T05:24:38.137Z,0
2018-12-14T05:25:38.119Z,0
2018-12-14T05:26:38.496Z,0
2018-12-14T05:27:38.087Z,0
2018-12-14T05:28:37.822Z,0
2018-12-14T05:29:38.054Z,0
2018-12-14T05:30:38.037Z,0
2018-12-14T05:31:38.021Z,0
2018-12-14T05:32:37.997Z,0
2018-12-14T05:33:37.987Z,0
2018-12-14T05:34:37.977Z,0
2018-12-14T05:35:37.952Z,0
2018-12-14T05:36:37.939Z,0
2018-12-14T05:37:37.924Z,0
2018-12-14T05:38:37.900Z,0
2018-12-14T05:39:37.886Z,0
2018-12-14T05:40:37.867Z,0
2018-12-14T05:41:38.468Z,0
2018-12-14T05:42:37.843Z,0
2018-12-14T05:43:37.824Z,0
2018-12-14T05:44:37.803Z,0
2018-12-14T05:45:37.810Z,0
2018-12-14T05:46:38.856Z,0
2018-12-14T05:47:37.761Z,0
2018-12-14T05:48:37.742Z,0
2018-12-14T05:49:37.725Z,0
2018-12-14T05:50:37.718Z,0
2018-12-14T05:51:37.688Z,0
2018-12-14T05:52:37.679Z,0
2018-12-14T05:53:37.664Z,0
2018-12-14T05:54:37.640Z,0
2018-12-14T05:55:37.632Z,0
2018-12-14T05:56:37.610Z,0
2018-12-14T05:57:37.607Z,0
2018-12-14T05:58:37.577Z,0
2018-12-14T05:59:37.561Z,0
2018-12-14T06:00:37.614Z,0
2018-12-14T06:01:37.533Z,0
2018-12-14T06:02:37.517Z,0
2018-12-14T06:03:37.504Z,0
2018-12-14T06:04:37.491Z,0
2018-12-14T06:05:37.474Z,0
2018-12-14T06:06:37.465Z,0
2018-12-14T06:07:37.432Z,0
2018-12-14T06:08:37.424Z,0
2018-12-14T06:09:37.653Z,0
2018-12-14T06:10:37.391Z,0
2018-12-14T06:11:37.369Z,0
2018-12-14T06:12:37.356Z,0
2018-12-14T06:13:37.338Z,0
2018-12-14T06:14:37.321Z,0
2018-12-14T06:15:37.303Z,0
2018-12-14T06:16:37.290Z,0
2018-12-14T06:17:37.269Z,0
2018-12-14T06:18:37.262Z,0
2018-12-14T06:19:37.243Z,0
2018-12-14T06:20:37.223Z,0
2018-12-14T06:21:37.218Z,0
2018-12-14T06:22:37.259Z,0
2018-12-14T06:23:37.174Z,0
2018-12-14T06:24:37.164Z,0
2018-12-14T06:25:37.170Z,0
2018-12-14T06:26:37.125Z,0
2018-12-14T06:27:37.184Z,0
2018-12-14T06:28:37.096Z,0
2018-12-14T06:29:37.080Z,0
2018-12-14T06:30:37.059Z,0
2018-12-14T06:31:36.805Z,0
2018-12-14T06:32:37.031Z,0
2018-12-14T06:33:37.018Z,0
2018-12-14T06:34:36.996Z,0
2018-12-14T06:35:36.979Z,0
2018-12-14T06:36:36.969Z,0
2018-12-14T06:37:36.948Z,0
2018-12-14T06:38:36.935Z,0
2018-12-14T06:39:36.914Z,0
2018-12-14T06:40:37.149Z,0
2018-12-14T06:41:36.923Z,0
2018-12-14T06:42:36.873Z,0
2018-12-14T06:43:36.862Z,0
2018-12-14T06:44:36.852Z,0
2018-12-14T06:45:36.823Z,0
2018-12-14T06:46:36.808Z,0
2018-12-14T06:47:36.790Z,0
2018-12-14T06:48:36.768Z,0
2018-12-14T06:49:36.757Z,0
2018-12-14T06:50:36.763Z,0
2018-12-14T06:51:37.516Z,0
2018-12-14T06:52:36.710Z,0
2018-12-14T06:53:36.697Z,0
2018-12-14T06:54:36.671Z,0
2018-12-14T06:55:36.674Z,0
2018-12-14T06:56:36.648Z,0
2018-12-14T06:57:36.643Z,0
2018-12-14T06:58:36.613Z,0
2018-12-14T06:59:36.596Z,0
2018-12-14T07:00:36.581Z,0
2018-12-14T07:01:36.567Z,0
2018-12-14T07:02:36.546Z,0
2018-12-14T07:03:36.533Z,0
2018-12-14T07:04:36.521Z,0
2018-12-14T07:05:37.898Z,0
2018-12-14T07:06:36.509Z,5
2018-12-14T07:07:36.240Z,5
2018-12-14T07:08:36.468Z,5
2018-12-14T07:09:36.440Z,5
2018-12-14T07:10:36.418Z,5
2018-12-14T07:11:36.403Z,5
2018-12-14T07:12:36.390Z,5
2018-12-14T07:13:36.370Z,5
2018-12-14T07:14:36.357Z,5
2018-12-14T07:15:36.337Z,5
2018-12-14T07:16:36.319Z,5
2018-12-14T07:17:36.303Z,5
2018-12-14T07:18:36.292Z,10
2018-12-14T07:19:36.278Z,10
2018-12-14T07:20:36.265Z,10
2018-12-14T07:21:36.242Z,10
2018-12-14T07:22:35.983Z,10
2018-12-14T07:23:36.214Z,10
2018-12-14T07:24:36.196Z,10
2018-12-14T07:25:36.186Z,15
2018-12-14T07:26:36.160Z,15
2018-12-14T07:27:35.913Z,15
2018-12-14T07:28:36.130Z,15
2018-12-14T07:29:36.116Z,15
2018-12-14T07:30:36.097Z,15
2018-12-14T07:31:36.082Z,15
2018-12-14T07:32:38.030Z,15
2018-12-14T07:33:36.068Z,20
2018-12-14T07:34:36.047Z,20
2018-12-14T07:35:41.668Z,20
2018-12-14T07:36:36.005Z,20
2018-12-14T07:37:35.983Z,20
2018-12-14T07:38:35.973Z,20
2018-12-14T07:39:35.963Z,25
2018-12-14T07:40:35.941Z,25
2018-12-14T07:41:35.922Z,25
2018-12-14T07:42:35.981Z,25
2018-12-14T07:43:37.970Z,25
2018-12-14T07:44:36.460Z,25
2018-12-14T07:45:35.872Z,25
2018-12-14T07:46:35.865Z,30
2018-12-14T07:47:35.832Z,30
2018-12-14T07:48:35.821Z,30
2018-12-14T07:49:35.797Z,30
2018-12-14T07:50:35.785Z,30
2018-12-14T07:51:35.771Z,30
2018-12-14T07:52:35.752Z,35
2018-12-14T07:53:35.742Z,35
2018-12-14T07:54:35.721Z,35
2018-12-14T07:55:35.702Z,35
2018-12-14T07:56:35.684Z,35
2018-12-14T07:57:35.672Z,40
2018-12-14T07:58:35.658Z,40
2018-12-14T07:59:35.645Z,40
2018-12-14T08:00:35.622Z,40
2018-12-14T08:01:35.608Z,40
2018-12-14T08:02:36.802Z,40
2018-12-14T08:03:35.572Z,45
2018-12-14T08:04:35.560Z,45
2018-12-14T08:05:35.545Z,45
2018-12-14T08:06:35.291Z,45
2018-12-14T08:07:35.517Z,45
2018-12-14T08:08:35.506Z,50
2018-12-14T08:09:35.482Z,50
2018-12-14T08:10:35.462Z,50
2018-12-14T08:11:35.454Z,50
2018-12-14T08:12:35.442Z,55
2018-12-14T08:13:41.559Z,55
2018-12-14T08:14:35.401Z,55
2018-12-14T08:15:35.387Z,55
2018-12-14T08:16:35.380Z,60
2018-12-14T08:17:35.360Z,60
2018-12-14T08:18:35.336Z,60
2018-12-14T08:19:35.331Z,60
2018-12-14T08:20:35.308Z,60
2018-12-14T08:21:35.285Z,65
2018-12-14T08:22:35.275Z,65
2018-12-14T08:23:35.257Z,65
2018-12-14T08:24:35.249Z,65
2018-12-14T08:25:35.255Z,65
2018-12-14T08:26:35.275Z,65
2018-12-14T08:27:35.192Z,65
2018-12-14T08:28:35.186Z,65
2018-12-14T08:29:35.166Z,65
2018-12-14T08:30:35.148Z,65
2018-12-14T08:31:35.136Z,70
2018-12-14T08:32:35.117Z,70
2018-12-14T08:33:35.102Z,70
2018-12-14T08:34:35.085Z,70
2018-12-14T08:35:35.091Z,70
2018-12-14T08:36:35.053Z,75
2018-12-14T08:37:35.050Z,75
2018-12-14T08:38:35.022Z,75
2018-12-14T08:39:35.044Z,75
2018-12-14T08:40:34.991Z,80
2018-12-14T08:41:34.975Z,80
2018-12-14T08:42:34.960Z,80
2018-12-14T08:43:41.169Z,80
2018-12-14T08:44:34.933Z,85
2018-12-14T08:45:34.915Z,85
2018-12-14T08:46:34.900Z,90
2018-12-14T08:47:35.632Z,90
2018-12-14T08:48:34.882Z,95
2018-12-14T08:49:34.932Z,95
2018-12-14T08:50:34.844Z,100
2018-12-14T08:51:35.089Z,100
2018-12-14T08:52:34.868Z,100
2018-12-14T08:53:34.795Z,100
2018-12-14T08:54:34.785Z,100
2018-12-14T08:55:34.778Z,105
2018-12-14T08:56:34.745Z,105
2018-12-14T08:57:34.735Z,105
2018-12-14T08:58:34.712Z,110
2018-12-14T08:59:34.702Z,110
2018-12-14T09:00:34.688Z,110
2018-12-14T09:01:34.678Z,115
2018-12-14T09:02:34.657Z,115
2018-12-14T09:03:34.646Z,115
2018-12-14T09:04:34.630Z,115
2018-12-14T09:05:34.612Z,120
2018-12-14T09:06:34.595Z,120
2018-12-14T09:07:34.583Z,120
2018-12-14T09:08:34.579Z,120
2018-12-14T09:09:34.549Z,120
2018-12-14T09:10:34.535Z,120
2018-12-14T09:11:34.580Z,120
2018-12-14T09:12:34.504Z,120
2018-12-14T09:13:34.557Z,125
2018-12-14T09:14:34.486Z,130
2018-12-14T09:15:34.461Z,125
2018-12-14T09:16:34.444Z,125
2018-12-14T09:17:34.428Z,130
2018-12-14T09:18:34.414Z,130
2018-12-14T09:19:34.415Z,130
2018-12-14T09:20:34.385Z,135
2018-12-14T09:21:34.371Z,135
2018-12-14T09:22:34.359Z,135
2018-12-14T09:23:34.340Z,135
2018-12-14T09:24:34.333Z,135
2018-12-14T09:25:34.311Z,135
2018-12-14T09:26:34.351Z,140
2018-12-14T09:27:34.281Z,140
2018-12-14T09:28:34.270Z,140
2018-12-14T09:29:34.263Z,140
2018-12-14T09:30:34.234Z,140
2018-12-14T09:31:34.221Z,140
2018-12-14T09:32:34.209Z,140
2018-12-14T09:33:34.195Z,140
2018-12-14T09:34:34.178Z,140
2018-12-14T09:35:34.167Z,140
2018-12-14T09:36:34.157Z,135
2018-12-14T09:37:34.136Z,135
2018-12-14T09:38:34.119Z,135
2018-12-14T09:39:34.111Z,135
2018-12-14T09:40:34.103Z,135
2018-12-14T09:41:34.076Z,135
2018-12-14T09:42:34.062Z,135
2018-12-14T09:43:34.046Z,130
2018-12-14T09:44:34.087Z,130
2018-12-14T09:45:34.019Z,125
2018-12-14T09:46:39.558Z,130
2018-12-14T09:47:33.985Z,130
2018-12-14T09:48:33.970Z,135
2018-12-14T09:49:33.973Z,135
2018-12-14T09:50:33.952Z,135
2018-12-14T09:51:33.930Z,140
2018-12-14T09:52:33.929Z,140
2018-12-14T09:53:33.899Z,140
2018-12-14T09:54:33.886Z,140
2018-12-14T09:55:33.875Z,140
2018-12-14T09:56:33.858Z,145
2018-12-14T09:57:33.855Z,145
2018-12-14T09:58:33.832Z,145
2018-12-14T09:59:33.821Z,145
2018-12-14T10:00:33.795Z,140
2018-12-14T10:01:33.788Z,135
2018-12-14T10:02:33.780Z,140
2018-12-14T10:03:33.753Z,140
2018-12-14T10:04:33.741Z,145
2018-12-14T10:05:33.728Z,140
2018-12-14T10:06:33.715Z,140
2018-12-14T10:07:33.695Z,140
2018-12-14T10:08:33.689Z,145
2018-12-14T10:09:33.670Z,150
2018-12-14T10:10:33.676Z,145
2018-12-14T10:11:33.396Z,145
2018-12-14T10:12:33.636Z,145
2018-12-14T10:13:33.616Z,150
2018-12-14T10:14:33.667Z,150
2018-12-14T10:15:33.580Z,145
2018-12-14T10:16:33.567Z,145
2018-12-14T10:17:33.555Z,145
2018-12-14T10:18:33.541Z,140
2018-12-14T10:19:33.286Z,140
2018-12-14T10:20:33.511Z,145
2018-12-14T10:21:33.492Z,145
2018-12-14T10:22:33.479Z,145
2018-12-14T10:23:33.469Z,140
2018-12-14T10:24:33.451Z,140
2018-12-14T10:25:33.433Z,140
2018-12-14T10:26:33.433Z,140
2018-12-14T10:27:33.409Z,140
2018-12-14T10:28:33.393Z,145
2018-12-14T10:29:33.381Z,145
2018-12-14T10:30:33.361Z,145
2018-12-14T10:31:33.348Z,145
2018-12-14T10:32:33.375Z,150
2018-12-14T10:33:33.322Z,140
2018-12-14T10:34:33.311Z,145
2018-12-14T10:35:33.054Z,145
2018-12-14T10:36:33.278Z,140
2018-12-14T10:37:33.260Z,140
2018-12-14T10:38:33.255Z,140
2018-12-14T10:39:33.235Z,140
2018-12-14T10:40:33.223Z,140
2018-12-14T10:41:33.202Z,140
2018-12-14T10:42:33.187Z,140
2018-12-14T10:43:33.180Z,140
2018-12-14T10:44:37.008Z,140
2018-12-14T10:45:33.150Z,140
2018-12-14T10:46:33.133Z,135
2018-12-14T10:47:33.118Z,135
2018-12-14T10:48:33.109Z,135
2018-12-14T10:49:33.087Z,135
2018-12-14T10:50:43.297Z,135
2018-12-14T10:51:33.063Z,135
2018-12-14T10:52:33.050Z,140
2018-12-14T10:53:33.040Z,135
2018-12-14T10:54:32.777Z,130
2018-12-14T10:55:33.003Z,130
2018-12-14T10:56:32.991Z,130
2018-12-14T10:57:32.976Z,130
2018-12-14T10:58:32.957Z,130
2018-12-14T10:59:32.946Z,125
2018-12-14T11:00:32.932Z,125
2018-12-14T11:01:32.911Z,125
2018-12-14T11:02:32.900Z,125
2018-12-14T11:03:32.884Z,125
2018-12-14T11:04:33.393Z,130
2018-12-14T11:05:32.853Z,130
2018-12-14T11:06:32.847Z,125
2018-12-14T11:07:32.828Z,125
2018-12-14T11:08:32.810Z,125
2018-12-14T11:09:32.800Z,125
2018-12-14T11:10:32.788Z,125
2018-12-14T11:11:32.769Z,125
2018-12-14T11:12:32.763Z,120
2018-12-14T11:13:32.732Z,120
2018-12-14T11:14:32.741Z,120
2018-12-14T11:15:32.790Z,115
2018-12-14T11:16:32.705Z,115
2018-12-14T11:17:32.681Z,115
2018-12-14T11:18:32.732Z,115
2018-12-14T11:19:32.651Z,115
2018-12-14T11:20:32.655Z,115
2018-12-14T11:21:32.637Z,115
2018-12-14T11:22:32.612Z,115
2018-12-14T11:23:32.606Z,110
2018-12-14T11:24:32.577Z,110
2018-12-14T11:25:32.561Z,110
2018-12-14T11:26:32.547Z,110
2018-12-14T11:27:32.290Z,110
2018-12-14T11:28:32.531Z,110
2018-12-14T11:29:32.713Z,110
2018-12-14T11:30:32.488Z,110
2018-12-14T11:31:32.477Z,105
2018-12-14T11:32:32.463Z,105
2018-12-14T11:33:32.443Z,100
2018-12-14T11:34:39.047Z,100
2018-12-14T11:35:32.414Z,100
2018-12-14T11:36:32.400Z,100
2018-12-14T11:37:32.390Z,95
2018-12-14T11:38:32.372Z,95
2018-12-14T11:39:32.360Z,95
2018-12-14T11:40:32.348Z,95
2018-12-14T11:41:32.335Z,95
2018-12-14T11:42:32.321Z,95
2018-12-14T11:43:32.312Z,90
2018-12-14T11:44:32.290Z,90
2018-12-14T11:45:32.277Z,90
2018-12-14T11:46:32.262Z,90
2018-12-14T11:47:32.950Z,85
2018-12-14T11:48:32.222Z,85
2018-12-14T11:49:32.210Z,85
2018-12-14T11:50:32.192Z,85
2018-12-14T11:51:32.179Z,85
2018-12-14T11:52:32.165Z,80
2018-12-14T11:53:32.157Z,80
2018-12-14T11:54:32.156Z,80
2018-12-14T11:55:32.119Z,80
2018-12-14T11:56:32.107Z,80
2018-12-14T11:57:32.087Z,80
2018-12-14T11:58:32.077Z,80
2018-12-14T11:59:32.064Z,75
2018-12-14T12:00:31.835Z,75
2018-12-14T12:01:32.030Z,75
2018-12-14T12:02:32.018Z,75
2018-12-14T12:03:31.998Z,70
2018-12-14T12:04:31.985Z,70
2018-12-14T12:05:31.972Z,70
2018-12-14T12:06:31.960Z,70
2018-12-14T12:07:31.943Z,65
2018-12-14T12:08:31.926Z,65
2018-12-14T12:09:33.362Z,65
2018-12-14T12:10:31.895Z,65
2018-12-14T12:11:31.886Z,65
2018-12-14T12:12:31.866Z,60
2018-12-14T12:13:31.848Z,60
2018-12-14T12:14:36.476Z,60
2018-12-14T12:15:31.823Z,60
2018-12-14T12:16:31.808Z,60
2018-12-14T12:17:31.797Z,60
2018-12-14T12:18:31.782Z,60
2018-12-14T12:19:31.772Z,60
2018-12-14T12:20:31.751Z,60
2018-12-14T12:21:31.747Z,60
2018-12-14T12:22:31.475Z,60
2018-12-14T12:23:31.702Z,65
2018-12-14T12:24:31.687Z,65
2018-12-14T12:25:31.679Z,65
2018-12-14T12:26:31.659Z,65
2018-12-14T12:27:31.651Z,65
2018-12-14T12:28:31.627Z,65
2018-12-14T12:29:31.609Z,65
2018-12-14T12:30:31.598Z,65
2018-12-14T12:31:31.579Z,65
2018-12-14T12:32:31.571Z,65
2018-12-14T12:33:31.550Z,65
2018-12-14T12:34:31.541Z,60
2018-12-14T12:35:31.526Z,60
2018-12-14T12:36:31.509Z,60
2018-12-14T12:37:31.490Z,60
2018-12-14T12:38:37.888Z,60
2018-12-14T12:39:31.481Z,60
2018-12-14T12:40:31.465Z,55
2018-12-14T12:41:31.436Z,55
2018-12-14T12:42:31.423Z,55
2018-12-14T12:43:31.405Z,55
2018-12-14T12:44:36.024Z,55
2018-12-14T12:45:31.384Z,55
2018-12-14T12:46:31.363Z,50
2018-12-14T12:47:31.343Z,50
2018-12-14T12:48:31.332Z,50
2018-12-14T12:49:31.313Z,50
2018-12-14T12:50:32.705Z,50
2018-12-14T12:51:31.286Z,50
2018-12-14T12:52:31.276Z,50
2018-12-14T12:53:31.263Z,50
2018-12-14T12:54:31.241Z,45
2018-12-14T12:55:31.233Z,45
2018-12-14T12:56:31.216Z,40
2018-12-14T12:57:31.201Z,40
2018-12-14T12:58:31.190Z,40
2018-12-14T12:59:31.176Z,40
2018-12-14T13:00:31.154Z,40
2018-12-14T13:01:31.148Z,40
2018-12-14T13:02:31.121Z,40
2018-12-14T13:03:31.113Z,40
2018-12-14T13:04:31.093Z,35
2018-12-14T13:05:37.392Z,35
2018-12-14T13:06:31.067Z,35
2018-12-14T13:07:31.051Z,35
2018-12-14T13:08:31.335Z,35
2018-12-14T13:09:31.024Z,30
2018-12-14T13:10:31.010Z,30
2018-12-14T13:11:31.003Z,35
2018-12-14T13:12:30.978Z,35
2018-12-14T13:13:30.960Z,40
2018-12-14T13:14:30.947Z,40
2018-12-14T13:15:30.938Z,45
2018-12-14T13:16:30.999Z,40
2018-12-14T13:17:30.948Z,40
2018-12-14T13:18:30.890Z,35
2018-12-14T13:19:30.941Z,30
2018-12-14T13:20:30.859Z,30
2018-12-14T13:21:30.897Z,30
2018-12-14T13:22:30.829Z,35
2018-12-14T13:23:30.814Z,35
2018-12-14T13:24:30.799Z,35
2018-12-14T13:25:30.790Z,35
2018-12-14T13:26:30.770Z,25
2018-12-14T13:27:30.761Z,25
2018-12-14T13:28:30.738Z,20
2018-12-14T13:29:30.727Z,25
2018-12-14T13:30:30.717Z,25
2018-12-14T13:31:30.708Z,30
2018-12-14T13:32:30.680Z,30
2018-12-14T13:33:30.666Z,25
2018-12-14T13:34:30.652Z,25
2018-12-14T13:35:30.634Z,25
2018-12-14T13:36:30.619Z,25
2018-12-14T13:37:30.610Z,20
2018-12-14T13:38:30.623Z,25
2018-12-14T13:39:30.634Z,25
2018-12-14T13:40:30.611Z,20
2018-12-14T13:41:30.617Z,20
2018-12-14T13:42:30.589Z,20
2018-12-14T13:43:30.541Z,15
2018-12-14T13:44:31.397Z,15
2018-12-14T13:45:30.498Z,15
2018-12-14T13:46:30.261Z,20
2018-12-14T13:47:30.473Z,20
2018-12-14T13:48:30.505Z,20
2018-12-14T13:49:30.477Z,20
2018-12-14T13:50:30.436Z,20
2018-12-14T13:51:30.389Z,15
2018-12-14T13:52:31.600Z,15
2018-12-14T13:53:30.360Z,15
2018-12-14T13:54:30.104Z,15
2018-12-14T13:55:30.330Z,15
2018-12-14T13:56:30.323Z,15
2018-12-14T13:57:30.299Z,15
2018-12-14T13:58:30.291Z,15
2018-12-14T13:59:30.303Z,15
2018-12-14T14:00:30.252Z,15
2018-12-14T14:01:30.250Z,15
2018-12-14T14:02:30.222Z,15
2018-12-14T14:03:30.207Z,15
2018-12-14T14:04:30.191Z,15
2018-12-14T14:05:30.178Z,15
2018-12-14T14:06:30.160Z,15
2018-12-14T14:07:30.145Z,15
2018-12-14T14:08:30.132Z,15
2018-12-14T14:09:30.117Z,15
2018-12-14T14:10:30.096Z,15
2018-12-14T14:11:30.264Z,10
2018-12-14T14:12:35.645Z,10
2018-12-14T14:13:30.059Z,10
2018-12-14T14:14:30.040Z,15
2018-12-14T14:15:30.536Z,10
2018-12-14T14:16:30.012Z,10
2018-12-14T14:17:29.997Z,10
2018-12-14T14:18:29.978Z,10
2018-12-14T14:19:29.969Z,10
2018-12-14T14:20:29.949Z,10
2018-12-14T14:21:29.929Z,10
2018-12-14T14:22:29.915Z,10
2018-12-14T14:23:29.895Z,10
2018-12-14T14:24:29.888Z,10
2018-12-14T14:25:29.867Z,10